sensor_id;sensor_type;location;lat;lon;timestamp;P1;durP1;ratioP1;P2;durP2;ratioP2
54269;SDS011;40181;51.560;13.000;2022-11-25T00:00:34;4.68;;;2.47;;
54269;SDS011;40181;51.560;13.000;2022-11-25T00:03:03;3.80;;;2.58;;
54269;SDS011;40181;51.560;13.000;2022-11-25T00:05:36;5.25;;;3.17;;
54269;SDS011;40181;51.560;13.000;2022-11-25T00:08:05;8.07;;;3.30;;
54269;SDS011;40181;51.560;13.000;2022-11-25T00:10:35;4.88;;;2.80;;
54269;SDS011;40181;51.560;13.000;2022-11-25T00:13:04;6.55;;;2.58;;
54269;SDS011;40181;51.560;13.000;2022-11-25T00:15:33;4.05;;;2.75;;
54269;SDS011;40181;51.560;13.000;2022-11-25T00:18:03;2.28;;;1.73;;
54269;SDS011;40181;51.560;13.000;2022-11-25T00:20:32;4.63;;;2.55;;
54269;SDS011;40181;51.560;13.000;2022-11-25T00:23:06;4.40;;;2.03;;
54269;SDS011;40181;51.560;13.000;2022-11-25T00:25:36;3.00;;;2.08;;
54269;SDS011;40181;51.560;13.000;2022-11-25T00:28:05;3.40;;;1.95;;
54269;SDS011;40181;51.560;13.000;2022-11-25T00:30:34;3.83;;;2.10;;
54269;SDS011;40181;51.560;13.000;2022-11-25T00:33:03;7.85;;;2.22;;
54269;SDS011;40181;51.560;13.000;2022-11-25T00:35:33;2.85;;;1.63;;
54269;SDS011;40181;51.560;13.000;2022-11-25T00:38:05;2.67;;;2.08;;
54269;SDS011;40181;51.560;13.000;2022-11-25T00:40:34;2.58;;;1.65;;
54269;SDS011;40181;51.560;13.000;2022-11-25T00:43:04;4.10;;;1.98;;
54269;SDS011;40181;51.560;13.000;2022-11-25T00:45:45;4.35;;;1.98;;
54269;SDS011;40181;51.560;13.000;2022-11-25T00:48:15;3.38;;;1.90;;
54269;SDS011;40181;51.560;13.000;2022-11-25T00:50:44;4.32;;;2.53;;
54269;SDS011;40181;51.560;13.000;2022-11-25T00:53:16;2.58;;;1.70;;
54269;SDS011;40181;51.560;13.000;2022-11-25T00:55:46;3.63;;;2.30;;
54269;SDS011;40181;51.560;13.000;2022-11-25T00:58:27;2.50;;;1.73;;
54269;SDS011;40181;51.560;13.000;2022-11-25T01:01:00;3.03;;;2.08;;
54269;SDS011;40181;51.560;13.000;2022-11-25T01:03:29;3.25;;;2.10;;
54269;SDS011;40181;51.560;13.000;2022-11-25T01:06:01;1.65;;;1.55;;
54269;SDS011;40181;51.560;13.000;2022-11-25T01:08:34;3.70;;;1.90;;
54269;SDS011;40181;51.560;13.000;2022-11-25T01:11:06;4.47;;;2.05;;
54269;SDS011;40181;51.560;13.000;2022-11-25T01:13:38;3.67;;;1.92;;
54269;SDS011;40181;51.560;13.000;2022-11-25T01:16:09;2.88;;;1.98;;
54269;SDS011;40181;51.560;13.000;2022-11-25T01:18:44;1.48;;;1.30;;
54269;SDS011;40181;51.560;13.000;2022-11-25T01:21:16;3.97;;;2.00;;
54269;SDS011;40181;51.560;13.000;2022-11-25T01:23:50;3.60;;;1.98;;
54269;SDS011;40181;51.560;13.000;2022-11-25T01:26:21;2.65;;;1.85;;
54269;SDS011;40181;51.560;13.000;2022-11-25T01:28:53;4.18;;;2.00;;
54269;SDS011;40181;51.560;13.000;2022-11-25T01:31:26;2.55;;;1.92;;
54269;SDS011;40181;51.560;13.000;2022-11-25T01:33:58;2.90;;;2.20;;
54269;SDS011;40181;51.560;13.000;2022-11-25T01:36:29;3.83;;;1.88;;
54269;SDS011;40181;51.560;13.000;2022-11-25T01:39:02;3.10;;;1.92;;
54269;SDS011;40181;51.560;13.000;2022-11-25T01:41:33;2.40;;;1.67;;
54269;SDS011;40181;51.560;13.000;2022-11-25T01:44:05;4.43;;;2.10;;
54269;SDS011;40181;51.560;13.000;2022-11-25T01:46:42;2.72;;;2.05;;
54269;SDS011;40181;51.560;13.000;2022-11-25T01:49:29;4.47;;;2.50;;
54269;SDS011;40181;51.560;13.000;2022-11-25T01:52:05;4.18;;;2.28;;
54269;SDS011;40181;51.560;13.000;2022-11-25T01:54:46;2.97;;;2.10;;
54269;SDS011;40181;51.560;13.000;2022-11-25T01:57:23;9.38;;;2.90;;
54269;SDS011;40181;51.560;13.000;2022-11-25T01:59:57;4.05;;;2.20;;
54269;SDS011;40181;51.560;13.000;2022-11-25T02:02:31;5.95;;;1.95;;
54269;SDS011;40181;51.560;13.000;2022-11-25T02:05:02;2.77;;;1.87;;
54269;SDS011;40181;51.560;13.000;2022-11-25T02:07:38;2.60;;;1.85;;
54269;SDS011;40181;51.560;13.000;2022-11-25T02:10:14;2.13;;;1.50;;
54269;SDS011;40181;51.560;13.000;2022-11-25T02:12:49;3.13;;;2.10;;
54269;SDS011;40181;51.560;13.000;2022-11-25T02:15:20;2.30;;;1.63;;
54269;SDS011;40181;51.560;13.000;2022-11-25T02:17:50;3.53;;;1.98;;
54269;SDS011;40181;51.560;13.000;2022-11-25T02:20:20;2.70;;;1.97;;
54269;SDS011;40181;51.560;13.000;2022-11-25T02:22:54;2.70;;;2.05;;
54269;SDS011;40181;51.560;13.000;2022-11-25T02:25:32;2.47;;;1.40;;
54269;SDS011;40181;51.560;13.000;2022-11-25T02:28:04;3.72;;;1.75;;
54269;SDS011;40181;51.560;13.000;2022-11-25T02:30:37;3.00;;;1.88;;
54269;SDS011;40181;51.560;13.000;2022-11-25T02:33:07;4.28;;;1.95;;
54269;SDS011;40181;51.560;13.000;2022-11-25T02:35:38;2.38;;;1.73;;
54269;SDS011;40181;51.560;13.000;2022-11-25T02:38:11;3.58;;;1.80;;
54269;SDS011;40181;51.560;13.000;2022-11-25T02:40:48;2.97;;;2.13;;
54269;SDS011;40181;51.560;13.000;2022-11-25T02:43:22;3.28;;;1.95;;
54269;SDS011;40181;51.560;13.000;2022-11-25T02:45:54;1.53;;;1.30;;
54269;SDS011;40181;51.560;13.000;2022-11-25T02:48:27;2.60;;;1.50;;
54269;SDS011;40181;51.560;13.000;2022-11-25T02:51:00;3.63;;;1.90;;
54269;SDS011;40181;51.560;13.000;2022-11-25T02:53:30;3.33;;;2.00;;
54269;SDS011;40181;51.560;13.000;2022-11-25T02:56:02;1.50;;;1.38;;
54269;SDS011;40181;51.560;13.000;2022-11-25T02:58:32;2.13;;;1.65;;
54269;SDS011;40181;51.560;13.000;2022-11-25T03:01:02;3.03;;;2.17;;
54269;SDS011;40181;51.560;13.000;2022-11-25T03:03:31;1.92;;;1.50;;
54269;SDS011;40181;51.560;13.000;2022-11-25T03:06:01;2.85;;;1.83;;
54269;SDS011;40181;51.560;13.000;2022-11-25T03:08:31;2.87;;;1.93;;
54269;SDS011;40181;51.560;13.000;2022-11-25T03:11:03;2.40;;;1.77;;
54269;SDS011;40181;51.560;13.000;2022-11-25T03:13:33;3.75;;;2.17;;
54269;SDS011;40181;51.560;13.000;2022-11-25T03:16:03;2.67;;;1.93;;
54269;SDS011;40181;51.560;13.000;2022-11-25T03:18:33;1.83;;;1.58;;
54269;SDS011;40181;51.560;13.000;2022-11-25T03:21:02;3.65;;;1.92;;
54269;SDS011;40181;51.560;13.000;2022-11-25T03:23:32;4.68;;;2.05;;
54269;SDS011;40181;51.560;13.000;2022-11-25T03:26:06;3.80;;;2.15;;
54269;SDS011;40181;51.560;13.000;2022-11-25T03:28:35;3.47;;;1.98;;
54269;SDS011;40181;51.560;13.000;2022-11-25T03:31:08;1.45;;;1.33;;
54269;SDS011;40181;51.560;13.000;2022-11-25T03:33:38;1.77;;;1.50;;
54269;SDS011;40181;51.560;13.000;2022-11-25T03:36:07;2.03;;;1.75;;
54269;SDS011;40181;51.560;13.000;2022-11-25T03:38:37;4.38;;;2.30;;
54269;SDS011;40181;51.560;13.000;2022-11-25T03:41:09;3.50;;;2.30;;
54269;SDS011;40181;51.560;13.000;2022-11-25T03:43:38;2.10;;;1.48;;
54269;SDS011;40181;51.560;13.000;2022-11-25T03:46:08;1.77;;;1.60;;
54269;SDS011;40181;51.560;13.000;2022-11-25T03:48:37;5.88;;;2.38;;
54269;SDS011;40181;51.560;13.000;2022-11-25T03:51:06;5.90;;;1.83;;
54269;SDS011;40181;51.560;13.000;2022-11-25T03:53:35;3.00;;;1.73;;
54269;SDS011;40181;51.560;13.000;2022-11-25T03:56:05;2.40;;;2.05;;
54269;SDS011;40181;51.560;13.000;2022-11-25T03:58:38;2.30;;;1.83;;
54269;SDS011;40181;51.560;13.000;2022-11-25T04:01:07;2.10;;;1.67;;
54269;SDS011;40181;51.560;13.000;2022-11-25T04:03:37;4.05;;;2.58;;
54269;SDS011;40181;51.560;13.000;2022-11-25T04:06:06;5.72;;;2.33;;
54269;SDS011;40181;51.560;13.000;2022-11-25T04:08:35;2.97;;;2.10;;
54269;SDS011;40181;51.560;13.000;2022-11-25T04:11:05;5.32;;;2.97;;
54269;SDS011;40181;51.560;13.000;2022-11-25T04:13:37;6.32;;;2.45;;
54269;SDS011;40181;51.560;13.000;2022-11-25T04:16:03;4.28;;;2.60;;
54269;SDS011;40181;51.560;13.000;2022-11-25T04:18:33;5.97;;;2.57;;
54269;SDS011;40181;51.560;13.000;2022-11-25T04:21:03;3.13;;;2.53;;
54269;SDS011;40181;51.560;13.000;2022-11-25T04:23:32;4.00;;;2.97;;
54269;SDS011;40181;51.560;13.000;2022-11-25T04:26:02;6.18;;;2.35;;
54269;SDS011;40181;51.560;13.000;2022-11-25T04:28:34;8.63;;;2.17;;
54269;SDS011;40181;51.560;13.000;2022-11-25T04:31:04;4.13;;;2.85;;
54269;SDS011;40181;51.560;13.000;2022-11-25T04:33:34;3.15;;;1.98;;
54269;SDS011;40181;51.560;13.000;2022-11-25T04:36:05;2.78;;;2.25;;
54269;SDS011;40181;51.560;13.000;2022-11-25T04:38:35;3.10;;;2.30;;
54269;SDS011;40181;51.560;13.000;2022-11-25T04:41:05;2.50;;;2.22;;
54269;SDS011;40181;51.560;13.000;2022-11-25T04:43:37;2.35;;;1.83;;
54269;SDS011;40181;51.560;13.000;2022-11-25T04:46:06;3.20;;;2.30;;
54269;SDS011;40181;51.560;13.000;2022-11-25T04:48:36;2.95;;;2.38;;
54269;SDS011;40181;51.560;13.000;2022-11-25T04:51:05;7.47;;;3.05;;
54269;SDS011;40181;51.560;13.000;2022-11-25T04:53:35;7.25;;;3.17;;
54269;SDS011;40181;51.560;13.000;2022-11-25T04:56:05;10.57;;;3.63;;
54269;SDS011;40181;51.560;13.000;2022-11-25T05:01:20;4.72;;;3.13;;
54269;SDS011;40181;51.560;13.000;2022-11-25T05:03:49;2.92;;;2.13;;
54269;SDS011;40181;51.560;13.000;2022-11-25T05:06:19;3.05;;;2.38;;
54269;SDS011;40181;51.560;13.000;2022-11-25T05:08:48;3.40;;;2.30;;
54269;SDS011;40181;51.560;13.000;2022-11-25T05:11:19;4.05;;;2.55;;
54269;SDS011;40181;51.560;13.000;2022-11-25T05:13:51;4.07;;;2.40;;
54269;SDS011;40181;51.560;13.000;2022-11-25T05:16:20;2.50;;;2.03;;
54269;SDS011;40181;51.560;13.000;2022-11-25T05:18:50;5.70;;;2.50;;
54269;SDS011;40181;51.560;13.000;2022-11-25T05:21:19;2.85;;;2.05;;
54269;SDS011;40181;51.560;13.000;2022-11-25T05:23:49;2.17;;;1.95;;
54269;SDS011;40181;51.560;13.000;2022-11-25T05:26:18;5.38;;;2.83;;
54269;SDS011;40181;51.560;13.000;2022-11-25T05:28:50;3.47;;;2.50;;
54269;SDS011;40181;51.560;13.000;2022-11-25T05:31:20;7.95;;;2.92;;
54269;SDS011;40181;51.560;13.000;2022-11-25T05:33:49;3.08;;;2.42;;
54269;SDS011;40181;51.560;13.000;2022-11-25T05:36:19;2.00;;;1.73;;
54269;SDS011;40181;51.560;13.000;2022-11-25T05:38:48;2.80;;;2.10;;
54269;SDS011;40181;51.560;13.000;2022-11-25T05:41:18;3.33;;;2.35;;
54269;SDS011;40181;51.560;13.000;2022-11-25T05:43:49;2.55;;;2.08;;
54269;SDS011;40181;51.560;13.000;2022-11-25T05:46:29;4.93;;;2.70;;
54269;SDS011;40181;51.560;13.000;2022-11-25T05:48:59;2.38;;;2.00;;
54269;SDS011;40181;51.560;13.000;2022-11-25T05:51:28;6.03;;;2.67;;
54269;SDS011;40181;51.560;13.000;2022-11-25T05:53:58;3.67;;;2.22;;
54269;SDS011;40181;51.560;13.000;2022-11-25T05:56:28;6.78;;;3.10;;
54269;SDS011;40181;51.560;13.000;2022-11-25T05:59:00;5.18;;;2.97;;
54269;SDS011;40181;51.560;13.000;2022-11-25T06:01:30;3.95;;;2.55;;
54269;SDS011;40181;51.560;13.000;2022-11-25T06:03:59;7.53;;;3.13;;
54269;SDS011;40181;51.560;13.000;2022-11-25T06:06:30;3.60;;;2.70;;
54269;SDS011;40181;51.560;13.000;2022-11-25T06:09:00;5.18;;;3.00;;
54269;SDS011;40181;51.560;13.000;2022-11-25T06:11:29;3.08;;;2.20;;
54269;SDS011;40181;51.560;13.000;2022-11-25T06:14:02;2.13;;;1.92;;
54269;SDS011;40181;51.560;13.000;2022-11-25T06:16:31;11.15;;;2.80;;
54269;SDS011;40181;51.560;13.000;2022-11-25T06:19:01;6.40;;;2.88;;
54269;SDS011;40181;51.560;13.000;2022-11-25T06:21:31;5.93;;;3.35;;
54269;SDS011;40181;51.560;13.000;2022-11-25T06:24:01;3.00;;;2.00;;
54269;SDS011;40181;51.560;13.000;2022-11-25T06:26:30;2.20;;;2.00;;
54269;SDS011;40181;51.560;13.000;2022-11-25T06:29:03;3.17;;;2.53;;
54269;SDS011;40181;51.560;13.000;2022-11-25T06:31:32;3.53;;;2.42;;
54269;SDS011;40181;51.560;13.000;2022-11-25T06:34:02;3.80;;;2.10;;
54269;SDS011;40181;51.560;13.000;2022-11-25T06:36:33;2.90;;;2.28;;
54269;SDS011;40181;51.560;13.000;2022-11-25T06:39:02;3.70;;;2.88;;
54269;SDS011;40181;51.560;13.000;2022-11-25T06:41:32;3.65;;;2.70;;
54269;SDS011;40181;51.560;13.000;2022-11-25T06:44:04;9.38;;;3.00;;
54269;SDS011;40181;51.560;13.000;2022-11-25T06:46:34;5.28;;;3.15;;
54269;SDS011;40181;51.560;13.000;2022-11-25T06:49:03;4.30;;;3.05;;
54269;SDS011;40181;51.560;13.000;2022-11-25T06:51:33;4.60;;;3.28;;
54269;SDS011;40181;51.560;13.000;2022-11-25T06:54:02;4.22;;;3.30;;
54269;SDS011;40181;51.560;13.000;2022-11-25T06:56:33;6.20;;;3.70;;
54269;SDS011;40181;51.560;13.000;2022-11-25T06:59:06;7.78;;;4.07;;
54269;SDS011;40181;51.560;13.000;2022-11-25T07:01:35;7.13;;;4.15;;
54269;SDS011;40181;51.560;13.000;2022-11-25T07:04:05;6.63;;;4.68;;
54269;SDS011;40181;51.560;13.000;2022-11-25T07:06:34;5.65;;;3.95;;
54269;SDS011;40181;51.560;13.000;2022-11-25T07:09:04;6.97;;;3.92;;
54269;SDS011;40181;51.560;13.000;2022-11-25T07:11:34;8.73;;;3.60;;
54269;SDS011;40181;51.560;13.000;2022-11-25T07:14:08;4.65;;;3.05;;
54269;SDS011;40181;51.560;13.000;2022-11-25T07:16:41;4.32;;;2.88;;
54269;SDS011;40181;51.560;13.000;2022-11-25T07:19:13;3.13;;;2.35;;
54269;SDS011;40181;51.560;13.000;2022-11-25T07:21:44;6.45;;;2.92;;
54269;SDS011;40181;51.560;13.000;2022-11-25T07:24:19;5.70;;;3.35;;
54269;SDS011;40181;51.560;13.000;2022-11-25T07:26:49;4.30;;;3.05;;
54269;SDS011;40181;51.560;13.000;2022-11-25T07:29:21;7.78;;;3.63;;
54269;SDS011;40181;51.560;13.000;2022-11-25T07:31:52;7.53;;;3.20;;
54269;SDS011;40181;51.560;13.000;2022-11-25T07:34:21;4.03;;;2.70;;
54269;SDS011;40181;51.560;13.000;2022-11-25T07:36:51;4.32;;;2.28;;
54269;SDS011;40181;51.560;13.000;2022-11-25T07:39:21;5.95;;;2.38;;
54269;SDS011;40181;51.560;13.000;2022-11-25T07:44:25;2.92;;;2.33;;
54269;SDS011;40181;51.560;13.000;2022-11-25T07:46:55;4.25;;;2.85;;
54269;SDS011;40181;51.560;13.000;2022-11-25T07:49:24;6.10;;;2.72;;
54269;SDS011;40181;51.560;13.000;2022-11-25T07:51:54;4.23;;;2.83;;
54269;SDS011;40181;51.560;13.000;2022-11-25T07:54:26;2.75;;;2.22;;
54269;SDS011;40181;51.560;13.000;2022-11-25T07:56:57;2.83;;;2.28;;
54269;SDS011;40181;51.560;13.000;2022-11-25T07:59:29;5.20;;;2.83;;
54269;SDS011;40181;51.560;13.000;2022-11-25T08:01:58;4.38;;;3.15;;
54269;SDS011;40181;51.560;13.000;2022-11-25T08:04:28;7.18;;;3.25;;
54269;SDS011;40181;51.560;13.000;2022-11-25T08:06:57;5.18;;;3.45;;
54269;SDS011;40181;51.560;13.000;2022-11-25T08:09:26;5.18;;;3.15;;
54269;SDS011;40181;51.560;13.000;2022-11-25T08:11:56;4.32;;;3.00;;
54269;SDS011;40181;51.560;13.000;2022-11-25T08:14:25;4.32;;;2.72;;
54269;SDS011;40181;51.560;13.000;2022-11-25T08:16:59;7.60;;;3.05;;
54269;SDS011;40181;51.560;13.000;2022-11-25T08:19:30;9.68;;;4.90;;
54269;SDS011;40181;51.560;13.000;2022-11-25T08:22:00;8.80;;;5.20;;
54269;SDS011;40181;51.560;13.000;2022-11-25T08:24:30;9.93;;;4.80;;
54269;SDS011;40181;51.560;13.000;2022-11-25T08:27:00;5.93;;;2.80;;
54269;SDS011;40181;51.560;13.000;2022-11-25T08:29:32;6.80;;;3.47;;
54269;SDS011;40181;51.560;13.000;2022-11-25T08:32:02;7.63;;;3.00;;
54269;SDS011;40181;51.560;13.000;2022-11-25T08:34:33;4.05;;;2.97;;
54269;SDS011;40181;51.560;13.000;2022-11-25T08:37:02;3.40;;;2.58;;
54269;SDS011;40181;51.560;13.000;2022-11-25T08:39:33;3.53;;;2.50;;
54269;SDS011;40181;51.560;13.000;2022-11-25T08:42:02;5.03;;;3.15;;
54269;SDS011;40181;51.560;13.000;2022-11-25T08:44:35;3.38;;;2.50;;
54269;SDS011;40181;51.560;13.000;2022-11-25T08:47:05;4.53;;;3.08;;
54269;SDS011;40181;51.560;13.000;2022-11-25T08:49:34;9.50;;;2.80;;
54269;SDS011;40181;51.560;13.000;2022-11-25T08:52:04;7.93;;;2.33;;
54269;SDS011;40181;51.560;13.000;2022-11-25T08:54:33;3.72;;;2.20;;
54269;SDS011;40181;51.560;13.000;2022-11-25T08:57:02;2.70;;;1.88;;
54269;SDS011;40181;51.560;13.000;2022-11-25T08:59:32;3.35;;;2.00;;
54269;SDS011;40181;51.560;13.000;2022-11-25T09:02:04;5.93;;;2.67;;
54269;SDS011;40181;51.560;13.000;2022-11-25T09:04:34;6.30;;;2.60;;
54269;SDS011;40181;51.560;13.000;2022-11-25T09:07:03;4.53;;;2.50;;
54269;SDS011;40181;51.560;13.000;2022-11-25T09:09:33;3.22;;;1.95;;
54269;SDS011;40181;51.560;13.000;2022-11-25T09:12:03;6.78;;;2.17;;
54269;SDS011;40181;51.560;13.000;2022-11-25T09:14:35;3.60;;;2.20;;
54269;SDS011;40181;51.560;13.000;2022-11-25T09:17:07;5.63;;;2.00;;
54269;SDS011;40181;51.560;13.000;2022-11-25T09:19:37;2.00;;;1.73;;
54269;SDS011;40181;51.560;13.000;2022-11-25T09:22:07;6.43;;;2.83;;
54269;SDS011;40181;51.560;13.000;2022-11-25T09:24:37;2.88;;;2.08;;
54269;SDS011;40181;51.560;13.000;2022-11-25T09:27:07;3.90;;;1.63;;
54269;SDS011;40181;51.560;13.000;2022-11-25T09:29:40;3.17;;;1.88;;
54269;SDS011;40181;51.560;13.000;2022-11-25T09:32:09;4.80;;;2.15;;
54269;SDS011;40181;51.560;13.000;2022-11-25T09:34:38;2.63;;;1.95;;
54269;SDS011;40181;51.560;13.000;2022-11-25T09:37:08;7.07;;;3.33;;
54269;SDS011;40181;51.560;13.000;2022-11-25T09:39:39;2.60;;;1.60;;
54269;SDS011;40181;51.560;13.000;2022-11-25T09:42:20;2.77;;;1.90;;
54269;SDS011;40181;51.560;13.000;2022-11-25T09:45:19;10.40;;;2.58;;
54269;SDS011;40181;51.560;13.000;2022-11-25T09:48:08;3.47;;;1.85;;
54269;SDS011;40181;51.560;13.000;2022-11-25T09:51:17;3.63;;;1.98;;
54269;SDS011;40181;51.560;13.000;2022-11-25T09:53:50;2.92;;;2.22;;
54269;SDS011;40181;51.560;13.000;2022-11-25T09:56:26;4.10;;;2.05;;
54269;SDS011;40181;51.560;13.000;2022-11-25T09:59:02;3.05;;;1.95;;
54269;SDS011;40181;51.560;13.000;2022-11-25T10:01:42;3.50;;;1.65;;
54269;SDS011;40181;51.560;13.000;2022-11-25T10:04:18;2.45;;;1.42;;
54269;SDS011;40181;51.560;13.000;2022-11-25T10:06:54;7.30;;;1.67;;
54269;SDS011;40181;51.560;13.000;2022-11-25T10:09:28;3.67;;;2.03;;
54269;SDS011;40181;51.560;13.000;2022-11-25T10:12:02;3.08;;;1.70;;
54269;SDS011;40181;51.560;13.000;2022-11-25T10:14:41;7.57;;;2.67;;
54269;SDS011;40181;51.560;13.000;2022-11-25T10:17:20;2.10;;;1.75;;
54269;SDS011;40181;51.560;13.000;2022-11-25T10:20:05;4.95;;;2.25;;
54269;SDS011;40181;51.560;13.000;2022-11-25T10:22:42;2.72;;;1.92;;
54269;SDS011;40181;51.560;13.000;2022-11-25T10:25:15;4.38;;;1.48;;
54269;SDS011;40181;51.560;13.000;2022-11-25T10:27:48;2.72;;;1.80;;
54269;SDS011;40181;51.560;13.000;2022-11-25T10:30:23;3.50;;;1.90;;
54269;SDS011;40181;51.560;13.000;2022-11-25T10:33:02;2.55;;;1.52;;
54269;SDS011;40181;51.560;13.000;2022-11-25T10:35:40;3.13;;;1.98;;
54269;SDS011;40181;51.560;13.000;2022-11-25T10:38:15;7.88;;;1.50;;
54269;SDS011;40181;51.560;13.000;2022-11-25T10:40:50;3.03;;;1.67;;
54269;SDS011;40181;51.560;13.000;2022-11-25T10:43:22;2.70;;;1.48;;
54269;SDS011;40181;51.560;13.000;2022-11-25T10:45:53;4.80;;;1.27;;
54269;SDS011;40181;51.560;13.000;2022-11-25T10:48:35;2.20;;;1.63;;
54269;SDS011;40181;51.560;13.000;2022-11-25T10:51:27;5.22;;;2.00;;
54269;SDS011;40181;51.560;13.000;2022-11-25T10:54:07;4.90;;;2.22;;
54269;SDS011;40181;51.560;13.000;2022-11-25T10:56:42;5.88;;;2.03;;
54269;SDS011;40181;51.560;13.000;2022-11-25T10:59:20;4.60;;;1.70;;
54269;SDS011;40181;51.560;13.000;2022-11-25T11:02:03;4.05;;;1.85;;
54269;SDS011;40181;51.560;13.000;2022-11-25T11:04:53;4.20;;;2.00;;
54269;SDS011;40181;51.560;13.000;2022-11-25T11:07:26;3.63;;;1.70;;
54269;SDS011;40181;51.560;13.000;2022-11-25T11:10:12;2.50;;;1.58;;
54269;SDS011;40181;51.560;13.000;2022-11-25T11:12:49;5.38;;;1.70;;
54269;SDS011;40181;51.560;13.000;2022-11-25T11:15:31;7.00;;;2.25;;
54269;SDS011;40181;51.560;13.000;2022-11-25T11:18:13;3.78;;;1.30;;
54269;SDS011;40181;51.560;13.000;2022-11-25T11:20:55;2.17;;;1.25;;
54269;SDS011;40181;51.560;13.000;2022-11-25T11:23:27;3.60;;;1.50;;
54269;SDS011;40181;51.560;13.000;2022-11-25T11:25:58;8.57;;;2.13;;
54269;SDS011;40181;51.560;13.000;2022-11-25T11:28:37;8.30;;;2.65;;
54269;SDS011;40181;51.560;13.000;2022-11-25T11:31:13;3.97;;;1.75;;
54269;SDS011;40181;51.560;13.000;2022-11-25T11:36:32;3.80;;;2.17;;
54269;SDS011;40181;51.560;13.000;2022-11-25T11:39:19;3.55;;;1.63;;
54269;SDS011;40181;51.560;13.000;2022-11-25T11:42:13;1.85;;;1.52;;
54269;SDS011;40181;51.560;13.000;2022-11-25T11:44:57;3.13;;;2.10;;
54269;SDS011;40181;51.560;13.000;2022-11-25T11:47:42;5.03;;;2.22;;
54269;SDS011;40181;51.560;13.000;2022-11-25T11:50:28;4.05;;;2.40;;
54269;SDS011;40181;51.560;13.000;2022-11-25T11:53:12;3.55;;;1.65;;
54269;SDS011;40181;51.560;13.000;2022-11-25T11:55:56;3.45;;;1.98;;
54269;SDS011;40181;51.560;13.000;2022-11-25T11:58:36;1.85;;;1.48;;
54269;SDS011;40181;51.560;13.000;2022-11-25T12:01:25;2.80;;;1.17;;
54269;SDS011;40181;51.560;13.000;2022-11-25T12:04:11;2.72;;;1.58;;
54269;SDS011;40181;51.560;13.000;2022-11-25T12:06:49;6.85;;;1.88;;
54269;SDS011;40181;51.560;13.000;2022-11-25T12:09:34;3.25;;;1.50;;
54269;SDS011;40181;51.560;13.000;2022-11-25T12:12:13;2.75;;;1.27;;
54269;SDS011;40181;51.560;13.000;2022-11-25T12:14:46;2.90;;;1.85;;
54269;SDS011;40181;51.560;13.000;2022-11-25T12:17:22;1.88;;;1.40;;
54269;SDS011;40181;51.560;13.000;2022-11-25T12:19:59;2.97;;;1.70;;
54269;SDS011;40181;51.560;13.000;2022-11-25T12:22:37;1.98;;;1.25;;
54269;SDS011;40181;51.560;13.000;2022-11-25T12:25:19;3.88;;;1.55;;
54269;SDS011;40181;51.560;13.000;2022-11-25T12:27:52;4.47;;;1.50;;
54269;SDS011;40181;51.560;13.000;2022-11-25T12:30:27;2.78;;;1.65;;
54269;SDS011;40181;51.560;13.000;2022-11-25T12:33:04;3.42;;;1.42;;
54269;SDS011;40181;51.560;13.000;2022-11-25T12:35:42;3.42;;;1.38;;
54269;SDS011;40181;51.560;13.000;2022-11-25T12:38:29;3.40;;;1.65;;
54269;SDS011;40181;51.560;13.000;2022-11-25T12:41:11;3.33;;;1.80;;
54269;SDS011;40181;51.560;13.000;2022-11-25T12:43:52;2.72;;;1.42;;
54269;SDS011;40181;51.560;13.000;2022-11-25T12:46:28;2.33;;;1.50;;
54269;SDS011;40181;51.560;13.000;2022-11-25T12:49:03;4.85;;;1.50;;
54269;SDS011;40181;51.560;13.000;2022-11-25T12:54:44;3.15;;;1.40;;
54269;SDS011;40181;51.560;13.000;2022-11-25T13:01:00;1.52;;;1.13;;
54269;SDS011;40181;51.560;13.000;2022-11-25T13:04:02;2.45;;;1.13;;
54269;SDS011;40181;51.560;13.000;2022-11-25T13:07:22;2.45;;;1.30;;
54269;SDS011;40181;51.560;13.000;2022-11-25T13:10:13;5.13;;;1.88;;
54269;SDS011;40181;51.560;13.000;2022-11-25T13:16:00;1.33;;;1.02;;
54269;SDS011;40181;51.560;13.000;2022-11-25T13:18:33;1.90;;;1.20;;
54269;SDS011;40181;51.560;13.000;2022-11-25T13:21:08;0.73;;;0.73;;
54269;SDS011;40181;51.560;13.000;2022-11-25T13:23:43;1.77;;;1.10;;
54269;SDS011;40181;51.560;13.000;2022-11-25T13:32:35;1.20;;;0.90;;
54269;SDS011;40181;51.560;13.000;2022-11-25T13:38:32;2.10;;;1.17;;
54269;SDS011;40181;51.560;13.000;2022-11-25T13:41:32;4.95;;;1.50;;
54269;SDS011;40181;51.560;13.000;2022-11-25T13:44:15;3.30;;;1.67;;
54269;SDS011;40181;51.560;13.000;2022-11-25T13:46:55;3.08;;;1.33;;
54269;SDS011;40181;51.560;13.000;2022-11-25T13:49:34;2.47;;;1.23;;
54269;SDS011;40181;51.560;13.000;2022-11-25T13:55:23;2.55;;;1.50;;
54269;SDS011;40181;51.560;13.000;2022-11-25T13:58:03;1.88;;;1.15;;
54269;SDS011;40181;51.560;13.000;2022-11-25T14:00:47;2.42;;;1.38;;
54269;SDS011;40181;51.560;13.000;2022-11-25T14:09:26;2.60;;;1.20;;
54269;SDS011;40181;51.560;13.000;2022-11-25T14:12:21;2.42;;;1.17;;
54269;SDS011;40181;51.560;13.000;2022-11-25T14:18:12;2.63;;;1.50;;
54269;SDS011;40181;51.560;13.000;2022-11-25T14:21:15;1.95;;;1.42;;
54269;SDS011;40181;51.560;13.000;2022-11-25T14:24:26;1.27;;;1.00;;
54269;SDS011;40181;51.560;13.000;2022-11-25T14:27:01;1.20;;;1.02;;
54269;SDS011;40181;51.560;13.000;2022-11-25T14:29:35;2.70;;;1.27;;
54269;SDS011;40181;51.560;13.000;2022-11-25T14:32:12;1.67;;;1.27;;
54269;SDS011;40181;51.560;13.000;2022-11-25T14:34:46;1.60;;;1.05;;
54269;SDS011;40181;51.560;13.000;2022-11-25T14:37:25;5.10;;;2.08;;
54269;SDS011;40181;51.560;13.000;2022-11-25T14:40:00;1.88;;;1.15;;
54269;SDS011;40181;51.560;13.000;2022-11-25T14:42:37;3.50;;;1.70;;
54269;SDS011;40181;51.560;13.000;2022-11-25T14:45:18;3.17;;;1.40;;
54269;SDS011;40181;51.560;13.000;2022-11-25T14:47:50;3.67;;;1.67;;
54269;SDS011;40181;51.560;13.000;2022-11-25T14:50:19;4.18;;;2.60;;
54269;SDS011;40181;51.560;13.000;2022-11-25T14:52:52;3.42;;;1.95;;
54269;SDS011;40181;51.560;13.000;2022-11-25T14:55:23;2.95;;;2.00;;
54269;SDS011;40181;51.560;13.000;2022-11-25T14:57:56;4.03;;;2.40;;
54269;SDS011;40181;51.560;13.000;2022-11-25T15:00:26;6.90;;;2.50;;
54269;SDS011;40181;51.560;13.000;2022-11-25T15:02:56;5.30;;;2.55;;
54269;SDS011;40181;51.560;13.000;2022-11-25T15:05:30;5.07;;;3.05;;
54269;SDS011;40181;51.560;13.000;2022-11-25T15:08:08;4.47;;;2.83;;
54269;SDS011;40181;51.560;13.000;2022-11-25T15:10:42;4.03;;;2.70;;
54269;SDS011;40181;51.560;13.000;2022-11-25T15:13:23;3.00;;;2.30;;
54269;SDS011;40181;51.560;13.000;2022-11-25T15:15:59;2.80;;;2.10;;
54269;SDS011;40181;51.560;13.000;2022-11-25T15:18:35;5.38;;;2.22;;
54269;SDS011;40181;51.560;13.000;2022-11-25T15:21:14;4.00;;;2.55;;
54269;SDS011;40181;51.560;13.000;2022-11-25T15:23:49;4.72;;;2.33;;
54269;SDS011;40181;51.560;13.000;2022-11-25T15:26:19;6.30;;;1.98;;
54269;SDS011;40181;51.560;13.000;2022-11-25T15:28:52;2.63;;;1.70;;
54269;SDS011;40181;51.560;13.000;2022-11-25T15:31:25;1.88;;;1.65;;
54269;SDS011;40181;51.560;13.000;2022-11-25T15:33:58;3.70;;;2.15;;
54269;SDS011;40181;51.560;13.000;2022-11-25T15:36:31;3.90;;;1.95;;
54269;SDS011;40181;51.560;13.000;2022-11-25T15:41:53;3.42;;;1.73;;
54269;SDS011;40181;51.560;13.000;2022-11-25T15:44:25;6.38;;;1.75;;
54269;SDS011;40181;51.560;13.000;2022-11-25T15:46:59;2.28;;;1.50;;
54269;SDS011;40181;51.560;13.000;2022-11-25T15:49:31;4.00;;;2.40;;
54269;SDS011;40181;51.560;13.000;2022-11-25T15:52:02;2.42;;;1.77;;
54269;SDS011;40181;51.560;13.000;2022-11-25T15:54:40;2.85;;;1.83;;